createdAt,value
2018-12-23T00:00:15.557Z,91.40
2018-12-23T00:02:44.077Z,91.60
2018-12-23T00:05:12.630Z,91.70
2018-12-23T00:07:41.153Z,91.80
2018-12-23T00:10:09.701Z,91.80
2018-12-23T00:12:38.235Z,92.00
2018-12-23T00:15:08.028Z,92.00
2018-12-23T00:17:36.575Z,92.00
2018-12-23T00:20:07.291Z,92.00
2018-12-23T00:22:35.813Z,92.00
2018-12-23T00:25:04.602Z,91.90
2018-12-23T00:27:33.146Z,91.80
2018-12-23T00:30:01.676Z,91.70
2018-12-23T00:32:30.291Z,91.70
2018-12-23T00:34:58.815Z,91.70
2018-12-23T00:37:27.356Z,91.70
2018-12-23T00:39:55.883Z,91.60
2018-12-23T00:42:24.526Z,91.60
2018-12-23T00:44:53.058Z,91.60
2018-12-23T00:47:21.586Z,91.50
2018-12-23T00:49:50.111Z,91.50
2018-12-23T00:52:18.652Z,91.50
2018-12-23T00:54:47.178Z,91.50
2018-12-23T00:57:15.710Z,91.50
2018-12-23T00:59:44.230Z,91.50
2018-12-23T01:02:12.846Z,91.50
2018-12-23T01:04:41.459Z,91.50
2018-12-23T01:07:10.117Z,91.40
2018-12-23T01:09:38.654Z,91.40
2018-12-23T01:12:07.303Z,91.40
2018-12-23T01:14:35.933Z,91.30
2018-12-23T01:17:04.457Z,91.30
2018-12-23T01:19:32.990Z,91.30
2018-12-23T01:22:01.522Z,91.30
2018-12-23T01:24:30.063Z,91.40
2018-12-23T01:26:58.587Z,91.40
2018-12-23T01:29:27.158Z,91.30
2018-12-23T01:31:55.678Z,91.30
2018-12-23T01:34:24.217Z,91.20
2018-12-23T01:36:52.742Z,91.20
2018-12-23T01:39:21.394Z,91.20
2018-12-23T01:41:49.939Z,91.10
2018-12-23T01:44:18.471Z,91.10
2018-12-23T01:46:47.030Z,91.00
2018-12-23T01:49:15.545Z,91.00
2018-12-23T01:51:44.090Z,91.00
2018-12-23T01:54:12.927Z,90.90
2018-12-23T01:56:41.558Z,90.90
2018-12-23T01:59:10.134Z,90.80
2018-12-23T02:01:38.678Z,90.70
2018-12-23T02:04:07.345Z,90.60
2018-12-23T02:06:35.885Z,90.60
2018-12-23T02:09:06.211Z,90.60
2018-12-23T02:11:34.763Z,90.50
2018-12-23T02:14:03.297Z,90.60
2018-12-23T02:16:31.810Z,90.50
2018-12-23T02:19:00.350Z,90.50
2018-12-23T02:21:28.873Z,90.50
2018-12-23T02:23:57.409Z,90.50
2018-12-23T02:26:25.957Z,90.50
2018-12-23T02:28:54.473Z,90.50
2018-12-23T02:31:22.985Z,90.50
2018-12-23T02:33:51.519Z,90.50
2018-12-23T02:36:20.042Z,90.50
2018-12-23T02:38:48.574Z,90.60
2018-12-23T02:41:17.098Z,90.60
2018-12-23T02:43:45.780Z,90.60
2018-12-23T02:46:14.315Z,90.70
2018-12-23T02:48:42.982Z,90.70
2018-12-23T02:51:11.630Z,90.80
2018-12-23T02:53:40.154Z,90.80
2018-12-23T02:56:08.919Z,90.90
2018-12-23T02:58:37.775Z,91.00
2018-12-23T03:01:06.534Z,91.00
2018-12-23T03:03:35.116Z,91.10
2018-12-23T03:06:06.075Z,91.20
2018-12-23T03:08:34.225Z,91.30
2018-12-23T03:11:02.773Z,91.30
2018-12-23T03:13:31.302Z,91.30
2018-12-23T03:15:59.834Z,91.40
2018-12-23T03:18:28.366Z,91.40
2018-12-23T03:20:56.930Z,91.40
2018-12-23T03:23:25.438Z,91.40
2018-12-23T03:25:53.953Z,91.30
2018-12-23T03:28:22.491Z,91.30
2018-12-23T03:30:51.302Z,91.20
2018-12-23T03:33:19.908Z,91.20
2018-12-23T03:35:48.559Z,91.20
2018-12-23T03:38:17.097Z,91.10
2018-12-23T03:40:45.662Z,91.30
2018-12-23T03:43:14.181Z,91.30
2018-12-23T03:45:42.707Z,91.00
2018-12-23T03:48:11.246Z,91.00
2018-12-23T03:50:39.758Z,91.00
2018-12-23T03:53:08.281Z,91.10
2018-12-23T03:55:36.832Z,91.00
2018-12-23T03:58:05.443Z,91.00
2018-12-23T04:00:33.979Z,91.00
2018-12-23T04:03:02.511Z,91.00
2018-12-23T04:05:31.032Z,91.00
2018-12-23T04:07:59.630Z,91.00
2018-12-23T04:10:28.188Z,91.00
2018-12-23T04:12:56.755Z,91.10
2018-12-23T04:15:25.284Z,91.10
2018-12-23T04:17:54.226Z,91.10
2018-12-23T04:20:22.760Z,91.20
2018-12-23T04:22:51.317Z,91.20
2018-12-23T04:25:19.851Z,91.20
2018-12-23T04:27:48.356Z,91.20
2018-12-23T04:30:16.899Z,91.20
2018-12-23T04:32:45.468Z,91.20
2018-12-23T04:35:14.006Z,91.20
2018-12-23T04:37:42.660Z,91.30
2018-12-23T04:40:11.200Z,91.30
2018-12-23T04:42:39.742Z,91.30
2018-12-23T04:45:08.279Z,91.30
2018-12-23T04:47:36.810Z,91.30
2018-12-23T04:50:06.065Z,91.40
2018-12-23T04:52:34.590Z,91.30
2018-12-23T04:55:03.118Z,91.30
2018-12-23T04:57:31.669Z,91.20
2018-12-23T05:00:00.199Z,91.50
2018-12-23T05:02:28.727Z,91.20
2018-12-23T05:04:57.266Z,91.20
2018-12-23T05:07:25.799Z,91.20
2018-12-23T05:09:54.318Z,91.30
2018-12-23T05:12:22.872Z,91.30
2018-12-23T05:14:51.399Z,91.30
2018-12-23T05:17:19.950Z,91.30
2018-12-23T05:19:48.507Z,91.30
2018-12-23T05:22:17.028Z,91.20
2018-12-23T05:24:45.561Z,91.20
2018-12-23T05:27:14.106Z,91.20
2018-12-23T05:29:42.634Z,91.30
2018-12-23T05:32:11.167Z,91.20
2018-12-23T05:34:39.682Z,91.20
2018-12-23T05:37:08.210Z,91.30
2018-12-23T05:39:36.736Z,91.30
2018-12-23T05:42:05.263Z,91.30
2018-12-23T05:44:33.782Z,91.30
2018-12-23T05:47:02.306Z,91.20
2018-12-23T05:49:30.853Z,91.30
2018-12-23T05:51:59.390Z,91.30
2018-12-23T05:54:27.910Z,91.30
2018-12-23T05:56:56.443Z,91.30
2018-12-23T05:59:25.070Z,91.30
2018-12-23T06:01:53.594Z,91.30
2018-12-23T06:04:22.131Z,91.30
2018-12-23T06:06:50.671Z,91.40
2018-12-23T06:09:19.212Z,91.40
2018-12-23T06:11:47.726Z,91.40
2018-12-23T06:14:16.254Z,91.50
2018-12-23T06:16:45.023Z,91.50
2018-12-23T06:19:13.584Z,91.50
2018-12-23T06:21:42.090Z,91.50
2018-12-23T06:24:10.618Z,91.60
2018-12-23T06:26:39.158Z,91.60
2018-12-23T06:29:07.701Z,91.60
2018-12-23T06:31:36.241Z,91.60
2018-12-23T06:34:05.259Z,91.60
2018-12-23T06:36:33.831Z,91.60
2018-12-23T06:39:02.350Z,91.60
2018-12-23T06:41:30.870Z,91.60
2018-12-23T06:43:59.534Z,91.60
2018-12-23T06:46:28.087Z,91.60
2018-12-23T06:48:56.619Z,91.50
2018-12-23T06:51:25.145Z,91.50
2018-12-23T06:53:53.682Z,91.40
2018-12-23T06:56:22.217Z,91.40
2018-12-23T06:58:50.741Z,91.30
2018-12-23T07:01:19.266Z,91.20
2018-12-23T07:03:47.814Z,91.00
2018-12-23T07:06:16.337Z,91.00
2018-12-23T07:08:45.227Z,91.00
2018-12-23T07:11:13.766Z,90.90
2018-12-23T07:13:42.297Z,90.90
2018-12-23T07:16:10.835Z,90.80
2018-12-23T07:18:39.354Z,90.80
2018-12-23T07:21:07.915Z,90.90
2018-12-23T07:23:36.426Z,91.00
2018-12-23T07:26:04.950Z,91.10
2018-12-23T07:28:33.489Z,91.10
2018-12-23T07:31:02.011Z,91.10
2018-12-23T07:33:30.543Z,91.10
2018-12-23T07:35:59.075Z,91.00
2018-12-23T07:38:27.598Z,91.00
2018-12-23T07:40:56.110Z,91.00
2018-12-23T07:43:24.623Z,91.00
2018-12-23T07:45:54.054Z,91.00
2018-12-23T07:48:22.582Z,90.90
2018-12-23T07:50:51.134Z,90.90
2018-12-23T07:53:19.702Z,91.00
2018-12-23T07:55:48.230Z,90.90
2018-12-23T07:58:16.770Z,90.90
2018-12-23T08:00:45.310Z,90.90
2018-12-23T08:03:13.857Z,90.90
2018-12-23T08:05:42.413Z,90.90
2018-12-23T08:08:10.926Z,90.90
2018-12-23T08:10:39.481Z,90.90
2018-12-23T08:13:08.129Z,90.80
2018-12-23T08:15:36.899Z,90.80
2018-12-23T08:18:05.914Z,90.80
2018-12-23T08:20:34.697Z,90.80
2018-12-23T08:23:03.238Z,90.80
2018-12-23T08:25:35.557Z,90.90
2018-12-23T08:28:02.329Z,90.90
2018-12-23T08:30:30.882Z,90.90
2018-12-23T08:32:59.462Z,90.90
2018-12-23T08:35:28.014Z,90.90
2018-12-23T08:37:56.558Z,90.80
2018-12-23T08:40:25.086Z,90.80
2018-12-23T08:42:53.615Z,90.80
2018-12-23T08:45:22.145Z,90.70
2018-12-23T08:47:50.721Z,90.70
2018-12-23T08:50:19.274Z,90.80
2018-12-23T08:52:47.814Z,90.70
2018-12-23T08:55:16.347Z,90.80
2018-12-23T08:57:44.861Z,90.70
2018-12-23T09:00:13.403Z,90.70
2018-12-23T09:02:41.942Z,90.70
2018-12-23T09:05:10.456Z,90.70
2018-12-23T09:07:38.964Z,90.60
2018-12-23T09:10:07.514Z,90.60
2018-12-23T09:12:36.030Z,90.60
2018-12-23T09:15:04.830Z,90.60
2018-12-23T09:17:33.368Z,90.60
2018-12-23T09:20:01.932Z,90.50
2018-12-23T09:22:30.476Z,90.50
2018-12-23T09:24:59.002Z,90.50
2018-12-23T09:27:27.567Z,90.50
2018-12-23T09:29:56.148Z,90.40
2018-12-23T09:32:24.694Z,90.40
2018-12-23T09:34:53.210Z,90.40
2018-12-23T09:37:21.782Z,90.60
2018-12-23T09:39:50.297Z,90.20
2018-12-23T09:42:18.838Z,90.20
2018-12-23T09:44:47.379Z,90.10
2018-12-23T09:47:15.922Z,90.10
2018-12-23T09:49:44.483Z,90.10
2018-12-23T09:52:13.054Z,90.20
2018-12-23T09:54:41.590Z,90.20
2018-12-23T09:57:10.130Z,90.20
2018-12-23T09:59:38.669Z,90.20
2018-12-23T10:02:07.214Z,90.20
2018-12-23T10:04:35.762Z,90.30
2018-12-23T10:07:04.293Z,90.30
2018-12-23T10:09:32.810Z,90.30
2018-12-23T10:12:01.387Z,90.30
2018-12-23T10:14:29.899Z,90.20
2018-12-23T10:16:58.450Z,90.20
2018-12-23T10:19:27.022Z,90.20
2018-12-23T10:21:55.566Z,90.10
2018-12-23T10:24:24.137Z,90.10
2018-12-23T10:26:52.667Z,90.00
2018-12-23T10:29:21.190Z,90.00
2018-12-23T10:31:49.730Z,90.00
2018-12-23T10:34:18.294Z,90.00
2018-12-23T10:36:47.819Z,89.70
2018-12-23T10:39:16.397Z,89.60
2018-12-23T10:41:44.920Z,89.40
2018-12-23T10:44:13.458Z,89.20
2018-12-23T10:46:41.992Z,88.90
2018-12-23T10:49:10.535Z,88.80
2018-12-23T10:51:39.026Z,88.70
2018-12-23T10:54:07.550Z,88.20
2018-12-23T10:56:36.085Z,88.30
2018-12-23T10:59:04.619Z,88.20
2018-12-23T11:01:33.177Z,88.00
2018-12-23T11:04:01.702Z,88.40
2018-12-23T11:06:30.303Z,87.70
2018-12-23T11:08:59.135Z,87.50
2018-12-23T11:11:28.109Z,87.20
2018-12-23T11:13:56.814Z,87.00
2018-12-23T11:16:25.353Z,86.80
2018-12-23T11:18:53.904Z,86.90
2018-12-23T11:21:22.729Z,86.60
2018-12-23T11:23:51.292Z,86.40
2018-12-23T11:26:19.827Z,87.10
2018-12-23T11:28:48.359Z,86.40
2018-12-23T11:31:16.918Z,85.90
2018-12-23T11:33:45.454Z,85.70
2018-12-23T11:36:13.983Z,85.80
2018-12-23T11:38:42.542Z,85.70
2018-12-23T11:41:11.074Z,85.70
2018-12-23T11:43:39.614Z,85.40
2018-12-23T11:46:08.154Z,85.00
2018-12-23T11:48:36.666Z,84.80
2018-12-23T11:51:06.774Z,84.80
2018-12-23T11:53:35.493Z,84.90
2018-12-23T11:56:04.006Z,84.70
2018-12-23T11:58:32.545Z,84.50
2018-12-23T12:01:01.078Z,84.20
2018-12-23T12:03:29.641Z,84.10
2018-12-23T12:05:58.183Z,83.80
2018-12-23T12:08:26.715Z,83.90
2018-12-23T12:10:55.243Z,83.70
2018-12-23T12:13:23.966Z,83.30
2018-12-23T12:15:52.498Z,83.40
2018-12-23T12:18:21.027Z,82.70
2018-12-23T12:20:49.598Z,82.30
2018-12-23T12:23:18.160Z,82.00
2018-12-23T12:25:46.713Z,81.70
2018-12-23T12:28:15.300Z,81.40
2018-12-23T12:30:43.880Z,81.10
2018-12-23T12:33:12.486Z,80.70
2018-12-23T12:35:41.054Z,79.60
2018-12-23T12:38:09.596Z,79.00
2018-12-23T12:40:38.218Z,79.10
2018-12-23T12:43:06.790Z,78.90
2018-12-23T12:45:35.329Z,78.60
2018-12-23T12:48:04.004Z,78.60
2018-12-23T12:50:32.562Z,79.40
2018-12-23T12:53:01.123Z,79.30
2018-12-23T12:55:29.670Z,79.60
2018-12-23T12:57:58.231Z,79.90
2018-12-23T13:00:26.791Z,80.00
2018-12-23T13:02:55.346Z,80.20
2018-12-23T13:05:23.924Z,80.40
2018-12-23T13:07:52.499Z,80.50
2018-12-23T13:10:21.103Z,80.80
2018-12-23T13:12:49.630Z,81.00
2018-12-23T13:15:18.214Z,81.00
2018-12-23T13:17:46.751Z,81.00
2018-12-23T13:20:15.303Z,80.90
2018-12-23T13:22:43.824Z,80.90
2018-12-23T13:25:12.417Z,80.80
2018-12-23T13:27:40.958Z,80.20
2018-12-23T13:30:09.552Z,80.70
2018-12-23T13:32:38.090Z,80.30
2018-12-23T13:35:06.679Z,80.00
2018-12-23T13:37:35.234Z,80.20
2018-12-23T13:40:12.307Z,80.40
2018-12-23T13:45:08.806Z,80.80
2018-12-23T13:47:51.291Z,81.60
2018-12-23T13:51:01.521Z,82.70
2018-12-23T13:53:51.990Z,83.20
2018-12-23T13:58:07.320Z,83.80
2018-12-23T14:02:54.799Z,84.20
2018-12-23T14:05:38.184Z,85.00
2018-12-23T14:10:18.981Z,85.20
2018-12-23T14:12:47.580Z,85.60
2018-12-23T14:15:16.162Z,86.00
2018-12-23T14:17:44.760Z,86.30
2018-12-23T14:20:13.318Z,86.50
2018-12-23T14:22:41.883Z,86.90
2018-12-23T14:25:10.462Z,87.30
2018-12-23T14:27:39.038Z,87.60
2018-12-23T14:30:08.022Z,88.20
2018-12-23T14:32:36.582Z,88.20
2018-12-23T14:35:05.436Z,88.60
2018-12-23T14:37:34.010Z,88.90
2018-12-23T14:40:02.575Z,89.20
2018-12-23T14:42:31.113Z,89.30
2018-12-23T14:44:59.672Z,89.50
2018-12-23T14:47:28.216Z,89.60
2018-12-23T14:49:56.772Z,90.00
2018-12-23T14:52:25.353Z,90.00
2018-12-23T14:54:53.905Z,90.10
2018-12-23T14:57:22.475Z,90.20
2018-12-23T14:59:51.183Z,90.20
2018-12-23T15:02:19.799Z,90.20
2018-12-23T15:04:48.402Z,90.20
2018-12-23T15:07:16.970Z,90.20
2018-12-23T15:09:45.542Z,90.20
2018-12-23T15:12:14.155Z,90.10
2018-12-23T15:15:19.972Z,90.20
2018-12-23T15:17:49.371Z,90.40
2018-12-23T15:20:18.902Z,90.40
2018-12-23T15:22:48.301Z,90.50
2018-12-23T15:25:17.695Z,90.60
2018-12-23T15:27:47.123Z,90.60
2018-12-23T15:30:16.527Z,90.70
2018-12-23T15:32:45.983Z,90.80
2018-12-23T15:35:15.408Z,90.80
2018-12-23T15:37:44.836Z,90.80
2018-12-23T15:40:14.252Z,90.90
2018-12-23T15:42:43.669Z,90.80
2018-12-23T15:45:13.089Z,90.80
2018-12-23T15:47:42.508Z,90.80
2018-12-23T15:50:11.927Z,90.80
2018-12-23T15:52:41.647Z,90.80
2018-12-23T15:55:11.063Z,90.80
2018-12-23T15:57:40.494Z,90.90
2018-12-23T16:00:10.199Z,90.90
2018-12-23T16:02:39.600Z,91.00
2018-12-23T16:05:08.995Z,90.90
2018-12-23T16:07:38.431Z,90.90
2018-12-23T16:10:08.780Z,90.90
2018-12-23T16:12:38.192Z,90.90
2018-12-23T16:15:07.599Z,91.10
2018-12-23T16:17:37.002Z,91.20
2018-12-23T16:20:07.721Z,91.30
2018-12-23T16:22:37.139Z,91.30
2018-12-23T16:25:06.531Z,91.40
2018-12-23T16:27:35.919Z,91.40
2018-12-23T16:30:06.401Z,91.50
2018-12-23T16:32:35.831Z,91.50
2018-12-23T16:35:05.327Z,91.50
2018-12-23T16:37:34.723Z,91.60
2018-12-23T16:40:04.573Z,91.60
2018-12-23T16:42:33.998Z,91.60
2018-12-23T16:45:03.412Z,91.60
2018-12-23T16:47:32.944Z,91.60
2018-12-23T16:50:02.360Z,91.70
2018-12-23T16:52:31.776Z,91.60
2018-12-23T16:55:01.361Z,91.60
2018-12-23T16:57:30.700Z,91.60
2018-12-23T17:00:00.150Z,91.70
2018-12-23T17:02:29.568Z,91.80
2018-12-23T17:04:59.064Z,91.80
2018-12-23T17:07:28.476Z,91.80
2018-12-23T17:09:57.878Z,91.80
2018-12-23T17:12:27.295Z,91.90
2018-12-23T17:14:56.783Z,91.90
2018-12-23T17:17:26.203Z,91.90
2018-12-23T17:19:55.631Z,91.90
2018-12-23T17:22:25.052Z,92.00
2018-12-23T17:24:54.490Z,92.00
2018-12-23T17:27:23.934Z,92.00
2018-12-23T17:29:53.316Z,92.00
2018-12-23T17:32:22.787Z,92.00
2018-12-23T17:34:52.196Z,92.20
2018-12-23T17:37:21.633Z,92.20
2018-12-23T17:39:51.058Z,92.20
2018-12-23T17:42:20.464Z,92.20
2018-12-23T17:44:49.933Z,92.20
2018-12-23T17:47:19.338Z,92.20
2018-12-23T17:49:48.854Z,92.30
2018-12-23T17:52:23.145Z,92.40
2018-12-23T17:54:49.327Z,92.40
2018-12-23T17:57:18.819Z,92.40
2018-12-23T17:59:48.226Z,92.30
2018-12-23T18:02:17.647Z,92.40
2018-12-23T18:04:47.032Z,92.40
2018-12-23T18:07:16.426Z,92.40
2018-12-23T18:09:45.879Z,92.40
2018-12-23T18:12:15.290Z,92.40
2018-12-23T18:14:44.748Z,92.40
2018-12-23T18:17:14.235Z,92.50
2018-12-23T18:19:43.778Z,92.50
2018-12-23T18:22:13.183Z,92.50
2018-12-23T18:24:42.705Z,92.50
2018-12-23T18:27:12.162Z,92.50
2018-12-23T18:29:41.573Z,92.60
2018-12-23T18:32:11.001Z,92.60
2018-12-23T18:34:40.405Z,92.70
2018-12-23T18:37:09.945Z,92.80
2018-12-23T18:39:39.340Z,92.80
2018-12-23T18:42:08.739Z,92.90
2018-12-23T18:44:38.235Z,92.90
2018-12-23T18:47:07.635Z,93.00
2018-12-23T18:49:37.065Z,93.00
2018-12-23T18:52:06.487Z,93.10
2018-12-23T18:54:35.923Z,93.10
2018-12-23T18:57:08.208Z,93.10
2018-12-23T18:59:44.353Z,93.20
2018-12-23T19:02:16.985Z,93.20
2018-12-23T19:04:46.349Z,93.20
2018-12-23T19:07:15.832Z,93.30
2018-12-23T19:10:11.460Z,93.30
2018-12-23T19:13:11.830Z,93.30
2018-12-23T19:16:37.487Z,93.30
2018-12-23T19:19:46.112Z,93.40
2018-12-23T19:22:42.944Z,93.50
2018-12-23T19:25:53.316Z,93.60
2018-12-23T19:29:03.351Z,93.60
2018-12-23T19:31:59.188Z,93.60
2018-12-23T19:35:03.852Z,93.60
2018-12-23T19:38:01.960Z,93.60
2018-12-23T19:41:09.151Z,93.70
2018-12-23T19:43:58.461Z,93.60
2018-12-23T19:47:01.948Z,93.80
2018-12-23T19:50:00.275Z,93.70
2018-12-23T19:53:37.522Z,93.80
2018-12-23T19:56:20.909Z,93.80
2018-12-23T19:59:36.419Z,93.90
2018-12-23T20:02:36.731Z,93.90
2018-12-23T20:05:40.524Z,93.90
2018-12-23T20:08:46.174Z,94.00
2018-12-23T20:11:46.225Z,93.90
2018-12-23T20:14:55.303Z,94.00
2018-12-23T20:17:47.715Z,93.90
2018-12-23T20:20:45.048Z,93.90
2018-12-23T20:24:19.314Z,93.90
2018-12-23T20:27:29.332Z,94.00
2018-12-23T20:30:54.789Z,94.00
2018-12-23T20:33:53.883Z,94.00
2018-12-23T20:36:50.805Z,94.00
2018-12-23T20:39:50.403Z,94.00
2018-12-23T20:42:44.091Z,94.10
2018-12-23T20:46:15.641Z,94.10
2018-12-23T20:49:37.800Z,94.10
2018-12-23T20:52:59.942Z,94.10
2018-12-23T20:56:13.911Z,94.10
2018-12-23T20:59:22.557Z,94.20
2018-12-23T21:02:24.075Z,94.20
2018-12-23T21:05:30.424Z,94.20
2018-12-23T21:08:33.635Z,94.10
2018-12-23T21:11:45.888Z,94.10
2018-12-23T21:14:56.812Z,94.10
2018-12-23T21:17:52.227Z,94.10
2018-12-23T21:21:06.883Z,94.20
2018-12-23T21:24:19.039Z,94.20
2018-12-23T21:27:01.000Z,94.20
2018-12-23T21:30:12.723Z,94.10
2018-12-23T21:33:18.746Z,94.00
2018-12-23T21:36:23.660Z,94.00
2018-12-23T21:39:45.900Z,93.90
2018-12-23T21:42:35.787Z,93.90
2018-12-23T21:45:28.901Z,93.90
2018-12-23T21:48:47.944Z,93.90
2018-12-23T21:51:53.440Z,93.90
2018-12-23T21:54:39.528Z,93.90
2018-12-23T21:57:47.988Z,93.90
2018-12-23T22:00:49.380Z,93.90
2018-12-23T22:04:01.432Z,94.00
2018-12-23T22:07:18.686Z,93.90
2018-12-23T22:10:15.874Z,93.80
2018-12-23T22:13:26.515Z,93.70
2018-12-23T22:15:55.991Z,93.70
2018-12-23T22:18:26.324Z,93.60
2018-12-23T22:20:56.103Z,93.50
2018-12-23T22:23:26.763Z,93.50
2018-12-23T22:25:57.647Z,93.50
2018-12-23T22:28:28.468Z,93.40
2018-12-23T22:30:57.965Z,93.40
2018-12-23T22:33:27.442Z,93.30
2018-12-23T22:35:56.855Z,93.20
2018-12-23T22:38:26.252Z,93.20
2018-12-23T22:41:05.015Z,93.20
2018-12-23T22:43:34.424Z,93.10
2018-12-23T22:46:03.835Z,93.10
2018-12-23T22:48:33.239Z,93.10
2018-12-23T22:51:02.627Z,93.00
2018-12-23T22:53:32.006Z,93.00
2018-12-23T22:56:01.412Z,93.00
2018-12-23T22:58:30.803Z,93.00
2018-12-23T23:01:00.239Z,93.00
2018-12-23T23:03:29.638Z,93.00
2018-12-23T23:05:59.035Z,93.00
2018-12-23T23:08:28.424Z,93.00
2018-12-23T23:10:57.840Z,93.00
2018-12-23T23:13:27.216Z,93.00
2018-12-23T23:15:56.644Z,93.00
2018-12-23T23:18:26.292Z,93.00
2018-12-23T23:20:55.681Z,92.90
2018-12-23T23:23:25.095Z,92.90
2018-12-23T23:25:54.464Z,92.90
2018-12-23T23:28:24.162Z,92.90
2018-12-23T23:30:53.563Z,92.90
2018-12-23T23:33:24.115Z,92.90
2018-12-23T23:35:53.605Z,92.90
2018-12-23T23:38:23.038Z,92.90
2018-12-23T23:40:52.427Z,92.90
2018-12-23T23:43:21.944Z,93.00
2018-12-23T23:45:51.335Z,93.00
2018-12-23T23:48:20.732Z,93.00
2018-12-23T23:50:50.159Z,93.10
2018-12-23T23:53:19.550Z,93.00
2018-12-23T23:55:48.947Z,93.10
2018-12-23T23:58:18.324Z,93.10
